aviador You're here:

KSMX Decoded Metar

SANTA MARIA in CA, USA
Report Time2017-04-29 16:51:00
UTC Time2017-04-29 17:46:00
Flight Rules vfr VFR
Wind270° at 05 kt
W.Decomp.*RWY 30: 3.6 kt HW 3.5 kt LCW
RWY 20: 2.8 kt HW 4.1 kt RCW
W.Rank270° ranks 11
Current wind is below 270° avg. (5.0)
Visibility9999 m
Phenomena:N/A
Clouds:N/A
Expected CloudBase > 6,400 ft AGL from Temp-Dew spread
CeilingNone
Temp19°C (ISA +4)
Dew Point03°C (35% RH)
AAT15.7°C
QNH1018 hPa
Density Alt705 ft
Elevation243 ft
Report Wrong Elevation
Raw Report
KSMX 291651Z 27005KT 8SM CLR 19/03 A3006=

Extra information for KSMX:More info

Metar Taf Metar & Taf Last 4 Metars F.Rules Stats Wind Profile Meteogram Temp Stats Airport Information Weather charts Add Link Nearby VenuesMetar ALERT Operation Metar Decoded Social comments

AIRNAV info for KSMX